Terminal Aerodrome Forecast
Issued by NWS Upton, NY

Home | Current Version | Previous Version | Text Only | Print | Product List | Glossary On
Versions: 1 2 3 4 5 6 7 8 9 10 11 12 13 14 15 16 17 18 19 20 21 22 23 24 25 26 27 28 29 30 31 32
000
FTUS41 KOKX 261740
TAFISP
TAF
KISP 261740Z 2618/2718 21012KT P6SM FEW060 SCT150
     FM262000 21013KT P6SM VCTS SCT060CB BKN200
     FM270000 22008KT P6SM VCSH SCT060 BKN120
     FM270500 VRB06KT P6SM SCT040 BKN060 OVC080
     FM270800 04006KT 5SM -SHRA SCT008 OVC020
     FM271200 06012KT 3SM -RA OVC008=

USA.gov is the U.S. government's official web portal to all federal, state and local government web resources and services.